Time;durP1;ratioP1;P1;durP2;ratioP2;P2;SDS_P1;SDS_P2;PMS_P1;PMS_P2;Temp;Humidity;BMP_temperature;BMP_pressure;BME280_temperature;BME280_humidity;BME280_pressure;Samples;Min_cycle;Max_cycle;Signal;HPM_P1;HPM_P2
2022/03/12 00:00:43;;;;;;;;;3.00;3.00;;;;;9.18;71.10;100862.75;5079744;28;45406;-75
2022/03/12 00:03:10;;;;;;;;;3.00;3.00;;;;;9.33;72.23;100888.72;5078844;28;47909;-75
2022/03/12 00:05:52;;;;;;;;;9.50;3.75;;;;;9.32;72.37;100895.72;5079841;27;45285;-75
2022/03/12 00:08:18;;;;;;;;;2.00;2.00;;;;;9.09;72.68;100855.47;5068921;28;45224;-75
2022/03/12 00:10:46;;;;;;;;;3.00;3.00;;;;;9.16;72.45;100889.09;5078835;27;44863;-75
2022/03/12 00:13:11;;;;;;;;;3.25;2.75;;;;;9.28;71.86;100903.50;5070992;28;46149;-75
2022/03/12 00:15:38;;;;;;;;;3.00;2.25;;;;;9.11;71.79;100890.69;5079692;27;45374;-75
2022/03/12 00:18:05;;;;;;;;;3.50;3.00;;;;;9.07;72.64;100882.63;5071001;28;45315;-74
2022/03/12 00:20:35;;;;;;;;;2.00;2.00;;;;;9.11;72.24;100881.88;5079451;27;45256;-74
2022/03/12 00:23:00;;;;;;;;;3.00;3.00;;;;;8.98;71.35;100867.41;5070724;28;46198;-75
2022/03/12 00:25:26;;;;;;;;;3.25;3.00;;;;;9.02;72.80;100881.56;5079425;27;45228;-75
2022/03/12 00:27:52;;;;;;;;;2.00;2.00;;;;;9.18;71.60;100904.94;5070377;28;45400;-76
2022/03/12 00:30:21;;;;;;;;;4.25;3.00;;;;;9.24;71.94;100928.88;5070704;28;47522;-75
2022/03/12 00:32:48;;;;;;;;;4.50;3.25;;;;;9.09;73.65;100900.28;5070576;28;47411;-75
2022/03/12 00:35:15;;;;;;;;;3.00;3.00;;;;;9.31;72.16;100938.78;5072376;28;45252;-74
2022/03/12 00:37:40;;;;;;;;;3.00;2.50;;;;;9.35;72.10;100937.13;5074954;28;45284;-74
2022/03/12 00:40:06;;;;;;;;;2.75;2.75;;;;;9.39;71.53;100937.28;5072785;28;45201;-75
2022/03/12 00:42:32;;;;;;;;;6.00;2.25;;;;;9.35;72.26;100929.22;5076659;28;46429;-75
2022/03/12 00:44:58;;;;;;;;;3.00;3.00;;;;;9.45;71.68;100941.84;5073167;28;45339;-75
2022/03/12 00:47:23;;;;;;;;;5.00;3.00;;;;;9.47;72.59;100949.84;5077938;28;45640;-75
2022/03/12 00:49:50;;;;;;;;;2.75;2.75;;;;;9.48;71.54;100957.78;5060613;28;45347;-75
2022/03/12 00:52:18;;;;;;;;;4.50;2.75;;;;;9.40;71.33;100943.44;5076205;28;46206;-75
2022/03/12 00:54:44;;;;;;;;;5.25;4.25;;;;;9.44;72.17;100960.25;5071852;28;45253;-74
2022/03/12 00:57:12;;;;;;;;;4.00;3.00;;;;;9.22;71.40;100930.59;5078704;28;45453;-75
2022/03/12 00:59:41;;;;;;;;;4.75;3.00;;;;;9.20;71.41;100924.38;5071937;27;46007;-74
2022/03/12 01:02:10;;;;;;;;;5.75;2.50;;;;;8.90;71.18;100876.81;5078579;28;45435;-75
2022/03/12 01:04:36;;;;;;;;;3.75;3.50;;;;;9.45;70.95;100972.63;5073636;27;45363;-75
2022/03/12 01:07:02;;;;;;;;;3.00;2.00;;;;;9.43;71.06;100972.56;5078726;28;45419;-75
2022/03/12 01:09:27;;;;;;;;;5.00;5.00;;;;;9.29;71.44;100944.84;5074860;27;45345;-75
2022/03/12 01:11:52;;;;;;;;;3.50;3.00;;;;;9.06;70.39;100918.66;5072918;28;45437;-75
2022/03/12 01:14:18;;;;;;;;;4.50;3.50;;;;;9.19;70.30;100944.56;5076333;28;45515;-75
2022/03/12 01:16:43;;;;;;;;;4.75;3.75;;;;;9.23;70.90;100953.47;5074376;27;48116;-75
2022/03/12 01:19:09;;;;;;;;;3.00;3.00;;;;;9.39;71.39;100989.16;5078745;28;45272;-74
2022/03/12 01:21:34;;;;;;;;;3.00;3.00;;;;;9.23;70.75;100963.13;5084968;27;45537;-75
2022/03/12 01:24:00;;;;;;;;;5.00;3.75;;;;;9.46;71.08;101009.59;5072034;28;45398;-75
2022/03/12 01:26:25;;;;;;;;;5.00;4.00;;;;;9.35;70.98;100977.63;5080145;28;45331;-74
2022/03/12 01:28:52;;;;;;;;;7.50;4.00;;;;;9.48;71.32;100993.84;5074583;28;45414;-75
2022/03/12 01:31:17;;;;;;;;;3.50;3.00;;;;;9.48;70.80;100996.47;5077412;28;45288;-74
2022/03/12 01:33:43;;;;;;;;;2.00;2.00;;;;;9.14;71.48;100935.59;5070698;27;46395;-74
2022/03/12 01:36:09;;;;;;;;;5.50;3.00;;;;;9.29;71.06;100963.31;5077453;28;45493;-75
2022/03/12 01:38:48;;;;;;;;;8.75;3.00;;;;;9.41;71.12;100990.13;5071142;28;45545;-74
2022/03/12 01:41:15;;;;;;;;;8.25;4.50;;;;;9.34;71.36;100974.91;5063957;28;46069;-75
2022/03/12 01:43:43;;;;;;;;;3.25;2.75;;;;;9.25;70.63;100964.09;5071624;27;45289;-75
2022/03/12 01:46:10;;;;;;;;;5.00;4.00;;;;;9.34;70.40;100989.00;5080929;28;45360;-75
2022/03/12 01:48:37;;;;;;;;;2.25;2.25;;;;;9.31;71.61;100985.38;5071229;28;45552;-75
2022/03/12 01:51:02;;;;;;;;;3.25;3.00;;;;;9.09;71.33;100949.50;5078203;28;47232;-74
2022/03/12 01:53:28;;;;;;;;;4.00;2.25;;;;;9.01;71.86;100943.06;5070738;27;45403;-75
2022/03/12 01:55:54;;;;;;;;;2.75;2.75;;;;;9.23;71.23;100995.66;5081883;28;45927;-75
2022/03/12 01:58:20;;;;;;;;;4.00;3.25;;;;;9.19;71.23;100999.06;5075429;27;45315;-75
2022/03/12 02:00:51;;;;;;;;;3.00;3.00;;;;;9.20;70.44;101000.84;5081513;28;45447;-75
2022/03/12 02:03:23;;;;;;;;;3.75;2.50;;;;;9.11;72.29;100977.72;5092108;27;45457;-75
2022/03/12 02:05:48;;;;;;;;;3.00;1.75;;;;;9.10;71.80;100980.28;5081755;28;45205;-75
2022/03/12 02:08:14;;;;;;;;;2.75;2.25;;;;;9.22;72.50;101006.19;5071665;28;46141;-75
2022/03/12 02:10:44;;;;;;;;;3.75;3.75;;;;;9.23;72.29;101010.59;5081532;27;45362;-75
2022/03/12 02:13:11;;;;;;;;;4.25;3.00;;;;;9.24;71.54;101017.66;5070428;28;45355;-75
2022/03/12 02:15:37;;;;;;;;;2.25;2.25;;;;;8.99;72.03;100971.13;5081741;28;45410;-75
2022/03/12 02:18:03;;;;;;;;;3.25;3.00;;;;;8.80;70.71;100938.88;5072691;27;45246;-75
2022/03/12 02:20:29;;;;;;;;;0.50;0.00;;;;;9.13;70.43;100991.84;5079914;28;47297;-75
2022/03/12 02:22:55;;;;;;;;;3.00;3.00;;;;;9.25;70.81;101020.38;5072619;27;45251;-75
2022/03/12 02:25:29;;;;;;;;;3.00;3.00;;;;;9.24;71.00;101037.00;5081749;27;45175;-75
2022/03/12 02:27:56;;;;;;;;;3.50;3.00;;;;;9.24;71.47;101023.81;5071019;28;45236;-74
2022/03/12 02:30:23;;;;;;;;;6.25;4.75;;;;;9.16;71.21;101012.16;5080309;27;45534;-75
2022/03/12 02:32:58;;;;;;;;;5.50;4.00;;;;;9.12;72.12;101019.03;5072555;28;45340;-74
2022/03/12 02:35:28;;;;;;;;;7.00;4.25;;;;;9.23;71.17;101031.72;5073909;28;45219;-75
2022/03/12 02:37:53;;;;;;;;;6.75;3.50;;;;;9.08;71.10;101017.16;5073485;28;45389;-75
2022/03/12 02:40:19;;;;;;;;;4.50;4.50;;;;;9.14;71.16;101016.47;5074382;28;45732;-75
2022/03/12 02:42:46;;;;;;;;;4.00;4.00;;;;;8.92;71.41;100981.47;5075596;28;45234;-75
2022/03/12 02:45:11;;;;;;;;;5.00;3.25;;;;;8.93;71.18;100975.38;5073294;28;45582;-75
2022/03/12 02:47:40;;;;;;;;;3.75;2.00;;;;;9.24;70.69;101021.19;5076941;28;45572;-75
2022/03/12 02:50:10;;;;;;;;;4.50;4.00;;;;;8.88;71.33;100957.59;5062476;28;46277;-74
2022/03/12 02:52:41;;;;;;;;;4.00;3.75;;;;;9.24;71.03;101018.56;5081135;28;45283;-74
2022/03/12 02:55:09;;;;;;;;;3.25;3.00;;;;;9.05;70.71;100984.53;5085569;28;45327;-74
2022/03/12 02:57:34;;;;;;;;;2.50;2.50;;;;;9.06;71.16;100989.84;5077268;28;45253;-74
2022/03/12 03:00:08;;;;;;;;;3.00;3.00;;;;;9.21;70.47;101015.81;5076195;28;45674;-74
2022/03/12 03:02:41;;;;;;;;;5.75;3.25;;;;;9.30;70.99;101033.69;5080253;28;45327;-75
2022/03/12 03:05:13;;;;;;;;;3.75;2.50;;;;;9.28;71.30;101031.00;5081557;28;45445;-75
2022/03/12 03:07:39;;;;;;;;;7.00;3.00;;;;;9.17;71.09;101013.94;5076686;28;45962;-74
2022/03/12 03:10:05;;;;;;;;;4.00;3.75;;;;;9.00;71.12;100973.81;5076285;28;47446;-74
2022/03/12 03:12:31;;;;;;;;;4.75;3.00;;;;;9.30;71.01;101034.59;5071448;28;45380;-74
2022/03/12 03:14:57;;;;;;;;;4.50;4.00;;;;;9.29;70.91;101027.50;5080256;27;45420;-74
2022/03/12 03:17:25;;;;;;;;;3.00;3.00;;;;;9.15;70.44;101008.59;5073980;28;47381;-74
2022/03/12 03:19:51;;;;;;;;;2.75;2.75;;;;;9.24;70.81;101029.09;5081149;28;46066;-74
2022/03/12 03:22:17;;;;;;;;;4.25;3.75;;;;;9.21;71.05;101028.13;5071227;28;45523;-74
2022/03/12 03:24:42;;;;;;;;;8.75;4.00;;;;;8.83;70.80;100961.81;5081036;28;45252;-74
2022/03/12 03:27:08;;;;;;;;;3.00;3.00;;;;;9.03;71.30;101009.94;5075799;27;45353;-74
2022/03/12 03:29:35;;;;;;;;;4.50;3.25;;;;;9.13;71.45;101035.75;5080845;28;45276;-74
2022/03/12 03:32:01;;;;;;;;;4.25;3.25;;;;;9.11;70.63;101030.44;5075814;27;45474;-74
2022/03/12 03:34:27;;;;;;;;;2.75;2.75;;;;;9.10;70.92;101033.03;5068750;27;45379;-74
2022/03/12 03:36:52;;;;;;;;;7.50;3.00;;;;;9.04;71.45;101025.78;5077599;28;45508;-74
2022/03/12 03:39:18;;;;;;;;;7.25;3.75;;;;;8.98;70.02;101019.44;5069615;28;45208;-73
2022/03/12 03:41:44;;;;;;;;;3.25;2.75;;;;;9.02;71.32;101031.84;5079140;28;45265;-74
2022/03/12 03:44:10;;;;;;;;;3.25;3.00;;;;;8.88;71.63;101010.31;5079662;28;45448;-74
2022/03/12 03:46:36;;;;;;;;;5.00;2.00;;;;;9.06;71.16;101042.56;5072109;28;46169;-74
2022/03/12 03:49:03;;;;;;;;;4.25;3.75;;;;;9.06;71.28;101036.41;5065631;27;45291;-74
2022/03/12 03:51:28;;;;;;;;;3.00;3.00;;;;;8.78;71.68;100995.03;5071573;28;45584;-74
2022/03/12 03:53:54;;;;;;;;;6.75;4.00;;;;;9.03;70.56;101034.56;5073067;27;45418;-74
2022/03/12 03:56:20;;;;;;;;;9.25;3.50;;;;;8.92;70.84;101021.00;5079617;28;45434;-74
2022/03/12 03:58:46;;;;;;;;;4.75;4.00;;;;;8.95;70.67;101018.47;5073798;28;45908;-74
2022/03/12 04:01:16;;;;;;;;;2.00;2.00;;;;;8.91;70.22;101016.59;5073072;28;45382;-74
2022/03/12 04:03:47;;;;;;;;;5.00;3.75;;;;;8.98;71.28;101035.25;5074778;28;45335;-75
2022/03/12 04:06:14;;;;;;;;;4.00;2.75;;;;;8.59;71.26;100973.28;5072798;28;46362;-74
2022/03/12 04:08:42;;;;;;;;;2.50;2.00;;;;;8.93;71.94;101040.34;5112875;27;47402;-74
2022/03/12 04:11:12;;;;;;;;;3.75;3.50;;;;;8.69;71.30;101004.41;5076843;28;45661;-74
2022/03/12 04:13:38;;;;;;;;;5.75;4.75;;;;;8.75;71.21;101022.16;5071527;28;45339;-74
2022/03/12 04:16:03;;;;;;;;;2.50;2.50;;;;;8.57;71.44;100997.78;5076679;28;46055;-76
2022/03/12 04:18:29;;;;;;;;;5.75;3.25;;;;;8.85;71.35;101036.53;5070916;28;45971;-75
2022/03/12 04:20:56;;;;;;;;;3.75;3.75;;;;;8.43;71.42;100974.50;5076813;28;45314;-74
2022/03/12 04:23:21;;;;;;;;;4.50;2.00;;;;;8.42;71.28;100985.88;5075063;28;45284;-73
2022/03/12 04:25:58;;;;;;;;;3.00;3.00;;;;;8.67;71.17;101035.06;5073917;28;45347;-75
2022/03/12 04:28:27;;;;;;;;;5.50;3.75;;;;;8.78;71.22;101059.16;5077289;28;45355;-75
2022/03/12 04:30:52;;;;;;;;;5.25;3.00;;;;;8.48;71.62;101007.16;5074776;28;45330;-74
2022/03/12 04:33:21;;;;;;;;;3.75;2.25;;;;;8.78;72.17;101059.16;5075388;28;45336;-77
2022/03/12 04:35:48;;;;;;;;;2.00;2.00;;;;;8.79;71.14;101066.22;5078252;27;45279;-76
2022/03/12 04:38:15;;;;;;;;;5.00;3.75;;;;;8.78;71.38;101064.44;5109168;27;47189;-75
2022/03/12 04:40:43;;;;;;;;;8.50;3.25;;;;;8.77;71.45;101062.66;5079149;27;45351;-76
2022/03/12 04:43:11;;;;;;;;;5.00;2.75;;;;;8.49;71.39;101026.50;5074832;27;45323;-75
2022/03/12 04:45:37;;;;;;;;;5.00;3.00;;;;;8.49;71.15;101026.50;5064621;28;45433;-75
2022/03/12 04:48:03;;;;;;;;;3.00;3.00;;;;;8.61;71.44;101050.66;5073457;28;47176;-75
2022/03/12 04:50:29;;;;;;;;;4.75;3.00;;;;;8.50;71.84;101034.47;5078988;27;45349;-75
2022/03/12 04:52:58;;;;;;;;;5.50;3.75;;;;;8.55;71.95;101039.00;5074782;27;45702;-76
2022/03/12 04:55:26;;;;;;;;;6.00;4.00;;;;;8.59;72.74;101059.34;5075411;28;46205;-76
2022/03/12 04:57:52;;;;;;;;;2.75;2.75;;;;;8.80;70.83;101077.69;5074724;27;45315;-76
2022/03/12 05:00:25;;;;;;;;;4.00;3.00;;;;;8.82;71.92;101070.72;5075930;28;45331;-76
2022/03/12 05:02:54;;;;;;;;;3.00;3.00;;;;;8.65;71.73;101049.91;5074938;28;45424;-77
2022/03/12 05:05:21;;;;;;;;;6.75;4.00;;;;;8.35;71.12;100991.75;5078799;28;45577;-77
2022/03/12 05:07:46;;;;;;;;;4.75;3.50;;;;;8.83;71.32;101077.78;5077948;28;46121;-76
2022/03/12 05:10:16;;;;;;;;;4.75;3.00;;;;;8.61;72.06;101055.94;5068550;27;45323;-76
2022/03/12 05:12:43;;;;;;;;;4.25;3.50;;;;;8.59;71.13;101054.97;5076378;28;45220;-76
2022/03/12 05:15:13;;;;;;;;;4.00;4.00;;;;;8.79;71.29;101092.59;5064563;28;46201;-75
2022/03/12 05:17:44;;;;;;;;;4.00;3.00;;;;;8.71;70.83;101079.16;5069439;28;45339;-75
2022/03/12 05:20:11;;;;;;;;;4.00;3.00;;;;;8.75;72.33;101090.69;5079517;27;45441;-76
2022/03/12 05:22:36;;;;;;;;;5.00;3.00;;;;;8.75;72.25;101098.59;5069261;27;45419;-76
2022/03/12 05:25:03;;;;;;;;;7.50;4.00;;;;;8.72;72.06;101096.75;5077823;28;45577;-74
2022/03/12 05:27:29;;;;;;;;;4.00;2.00;;;;;8.56;70.96;101060.13;5065562;28;45450;-75
2022/03/12 05:29:54;;;;;;;;;5.75;4.00;;;;;8.56;71.73;101069.78;5067251;28;45293;-77
2022/03/12 05:32:20;;;;;;;;;8.50;7.50;;;;;8.77;72.22;101098.66;5073825;28;45158;-76
2022/03/12 05:34:45;;;;;;;;;4.00;4.00;;;;;8.68;71.30;101091.28;5075454;28;47477;-76
2022/03/12 05:37:11;;;;;;;;;8.25;7.50;;;;;8.51;71.75;101057.34;5074329;28;47238;-76
2022/03/12 05:39:37;;;;;;;;;8.00;5.00;;;;;8.76;71.93;101110.03;5078599;27;45294;-77
2022/03/12 05:42:05;;;;;;;;;7.50;7.25;;;;;8.35;72.34;101033.88;5071858;28;45307;-77
2022/03/12 05:44:34;;;;;;;;;13.75;11.00;;;;;8.75;72.61;101111.78;5073485;28;45804;-75
2022/03/12 05:47:00;;;;;;;;;7.25;4.50;;;;;8.46;71.24;101060.66;5077409;28;45584;-75
2022/03/12 05:49:25;;;;;;;;;3.25;2.25;;;;;8.61;71.10;101095.47;5076978;28;45207;-76
2022/03/12 05:51:51;;;;;;;;;5.25;4.00;;;;;8.43;71.65;101050.91;5077423;28;45241;-75
2022/03/12 05:54:17;;;;;;;;;5.75;5.00;;;;;8.64;72.46;101097.31;5078461;27;45232;-74
2022/03/12 05:56:42;;;;;;;;;7.00;7.00;;;;;8.68;71.80;101105.41;5075893;28;47118;-74
2022/03/12 05:59:07;;;;;;;;;6.25;4.75;;;;;8.35;72.38;101057.59;5078077;27;45292;-74
2022/03/12 06:01:33;;;;;;;;;5.25;4.00;;;;;8.64;72.22;101119.28;5078116;28;45338;-74
2022/03/12 06:04:00;;;;;;;;;8.75;7.00;;;;;8.63;72.68;101112.22;5081610;27;45411;-74
2022/03/12 06:06:29;;;;;;;;;3.50;3.50;;;;;8.63;71.08;101125.41;5072082;28;47034;-75
2022/03/12 06:08:57;;;;;;;;;9.75;7.50;;;;;8.62;71.50;101122.69;5075474;28;45340;-76
2022/03/12 06:11:25;;;;;;;;;4.00;4.00;;;;;8.60;71.61;101121.72;5078114;27;45331;-75
2022/03/12 06:13:57;;;;;;;;;5.00;3.00;;;;;8.49;71.50;101109.06;5073723;28;45309;-74
2022/03/12 06:16:24;;;;;;;;;7.25;5.00;;;;;8.52;71.84;101122.34;5075006;28;47108;-75
2022/03/12 06:18:51;;;;;;;;;6.25;5.50;;;;;8.21;72.00;101080.75;5081276;28;45500;-75
2022/03/12 06:21:17;;;;;;;;;5.50;4.75;;;;;8.14;71.17;101072.56;5076927;28;45439;-76
2022/03/12 06:23:43;;;;;;;;;8.00;7.00;;;;;8.44;72.51;101136.09;5081390;28;46295;-75
2022/03/12 06:26:12;;;;;;;;;8.00;7.00;;;;;8.42;72.15;101137.75;5080579;28;46059;-75
2022/03/12 06:28:38;;;;;;;;;9.75;7.50;;;;;8.41;72.31;101143.88;5081202;27;45343;-75
2022/03/12 06:31:03;;;;;;;;;14.25;9.25;;;;;8.38;73.39;101144.63;5080399;28;45496;-75
2022/03/12 06:33:30;;;;;;;;;6.00;6.00;;;;;8.37;71.65;101149.81;5081069;28;45500;-75
2022/03/12 06:35:57;;;;;;;;;6.50;6.50;;;;;8.28;73.00;101135.44;5078229;28;48414;-74
2022/03/12 06:38:24;;;;;;;;;10.50;7.50;;;;;8.31;72.55;101139.94;5080802;28;46424;-75
2022/03/12 06:40:51;;;;;;;;;6.50;5.75;;;;;8.41;71.39;101149.13;5080501;28;45433;-74
2022/03/12 06:43:19;;;;;;;;;12.25;12.25;;;;;8.29;72.59;101145.16;5079434;28;47332;-74
2022/03/12 06:45:46;;;;;;;;;5.50;5.00;;;;;8.44;71.92;101160.69;5080132;27;46199;-75
2022/03/12 06:48:12;;;;;;;;;10.25;7.75;;;;;8.41;72.44;101155.31;5079889;28;45312;-75
2022/03/12 06:50:38;;;;;;;;;8.50;7.50;;;;;8.24;72.46;101117.75;5080078;28;45633;-74
2022/03/12 06:53:03;;;;;;;;;9.75;7.00;;;;;8.32;71.58;101132.94;5080503;28;45473;-74
2022/03/12 06:55:31;;;;;;;;;7.50;5.00;;;;;8.56;71.32;101185.72;5079999;28;46135;-73
2022/03/12 06:57:58;;;;;;;;;13.75;10.50;;;;;8.47;72.13;101176.59;5078881;28;45257;-74
2022/03/12 07:00:26;;;;;;;;;10.00;9.00;;;;;8.56;72.12;101199.78;5079639;27;45430;-73
2022/03/12 07:02:52;;;;;;;;;6.25;6.25;;;;;8.37;71.88;101174.41;5069257;28;45558;-74
2022/03/12 07:05:17;;;;;;;;;9.00;9.00;;;;;8.28;71.83;101163.53;5079073;28;46483;-74
2022/03/12 07:07:42;;;;;;;;;16.50;14.25;;;;;8.48;72.24;101203.84;5079033;28;45357;-74
2022/03/12 07:10:09;;;;;;;;;5.00;5.00;;;;;8.38;71.67;101186.75;5078720;28;45446;-74
2022/03/12 07:12:36;;;;;;;;;11.00;9.50;;;;;8.38;71.68;101193.78;5079851;27;45395;-73
2022/03/12 07:15:02;;;;;;;;;7.50;3.50;;;;;8.56;71.66;101222.59;5080044;28;45290;-74
2022/03/12 07:17:27;;;;;;;;;7.50;6.25;;;;;8.20;71.53;101167.59;5079361;28;45388;-74
2022/03/12 07:19:53;;;;;;;;;8.00;7.00;;;;;8.10;70.66;101145.28;5081105;27;45372;-75
2022/03/12 07:22:18;;;;;;;;;8.50;5.50;;;;;8.33;71.37;101184.78;5076262;28;46224;-74
2022/03/12 07:24:43;;;;;;;;;7.75;7.25;;;;;8.48;71.92;101215.28;5079952;27;45357;-76
2022/03/12 07:27:09;;;;;;;;;7.75;6.50;;;;;8.22;71.74;101177.34;5070012;28;45943;-75
2022/03/12 07:29:35;;;;;;;;;15.25;11.75;;;;;8.56;71.90;101234.03;5078515;28;45432;-75
2022/03/12 07:32:00;;;;;;;;;5.50;4.75;;;;;8.62;71.29;101233.38;5077703;28;45275;-75
2022/03/12 07:34:26;;;;;;;;;8.00;5.00;;;;;8.63;70.91;101230.81;5069004;28;45567;-76
2022/03/12 07:36:52;;;;;;;;;6.75;6.50;;;;;8.64;71.20;101229.97;5070487;28;45256;-76
2022/03/12 07:39:17;;;;;;;;;7.00;7.00;;;;;8.68;71.25;101237.16;5070049;28;45362;-75
2022/03/12 07:41:43;;;;;;;;;69.00;53.00;;;;;8.52;71.55;101195.25;5075941;28;47052;-75
2022/03/12 07:44:09;;;;;;;;;26.75;21.25;;;;;8.74;71.48;101232.13;5070108;28;47201;-75
2022/03/12 07:46:34;;;;;;;;;8.25;5.50;;;;;8.74;71.32;101228.59;5079752;28;45319;-75
2022/03/12 07:49:00;;;;;;;;;26.75;21.25;;;;;8.45;71.18;101167.75;5075412;28;45552;-75
2022/03/12 07:51:26;;;;;;;;;18.50;15.00;;;;;8.92;71.95;101233.66;5071150;28;45618;-75
2022/03/12 07:53:52;;;;;;;;;9.00;5.75;;;;;8.77;71.36;101202.34;5078904;28;47020;-74
2022/03/12 07:56:18;;;;;;;;;15.00;10.25;;;;;8.94;71.47;101234.63;5079678;28;45616;-75
2022/03/12 07:58:44;;;;;;;;;59.00;46.50;;;;;8.79;70.31;101192.75;5074100;28;45592;-74
2022/03/12 08:01:10;;;;;;;;;17.25;14.25;;;;;8.99;70.99;101234.78;5080964;27;45988;-75
2022/03/12 08:03:36;;;;;;;;;7.00;7.00;;;;;9.08;70.32;101248.31;5075157;27;46112;-74
2022/03/12 08:06:05;;;;;;;;;8.75;4.00;;;;;9.12;70.72;101252.88;5074321;28;45955;-74
2022/03/12 08:08:31;;;;;;;;;11.50;9.25;;;;;9.17;70.84;101249.56;5071064;27;45532;-74
2022/03/12 08:13:44;;;;;;;;;11.25;8.50;;;;;9.06;70.82;101229.78;5079536;28;45850;-74
2022/03/12 08:16:13;;;;;;;;;6.50;6.50;;;;;9.27;70.65;101271.00;5078198;27;45488;-74
2022/03/12 08:18:43;;;;;;;;;18.00;13.75;;;;;9.25;70.33;101263.03;5077346;28;45481;-74
2022/03/12 08:21:10;;;;;;;;;18.25;17.75;;;;;9.18;69.30;101255.72;5073222;28;46188;-75
2022/03/12 08:23:36;;;;;;;;;4.00;4.00;;;;;9.34;69.89;101283.56;5077079;28;48013;-75
2022/03/12 08:26:02;;;;;;;;;10.00;9.25;;;;;9.34;69.96;101281.84;5074315;28;46028;-74
2022/03/12 08:28:28;;;;;;;;;7.25;6.00;;;;;9.22;69.78;101259.41;5068761;28;45454;-75
2022/03/12 08:30:53;;;;;;;;;11.00;8.00;;;;;9.32;69.67;101290.53;5072951;28;45450;-74
2022/03/12 08:33:20;;;;;;;;;5.75;5.75;;;;;9.41;70.08;101297.06;5071326;28;46978;-74
2022/03/12 08:35:49;;;;;;;;;23.75;13.25;;;;;9.28;69.68;101276.34;5076048;27;45346;-74
2022/03/12 08:38:15;;;;;;;;;5.75;5.00;;;;;9.40;69.94;101303.16;5068200;28;45322;-74
2022/03/12 08:40:41;;;;;;;;;43.25;36.00;;;;;9.35;69.95;101286.28;5075274;28;45684;-74
2022/03/12 08:43:06;;;;;;;;;12.00;10.00;;;;;9.34;69.16;101289.75;5073183;27;45350;-74
2022/03/12 08:45:32;;;;;;;;;5.75;4.75;;;;;9.40;69.20;101289.97;5086200;27;45556;-74
2022/03/12 08:47:58;;;;;;;;;5.25;5.25;;;;;9.55;68.99;101313.41;5076698;28;45442;-74
2022/03/12 08:50:25;;;;;;;;;7.25;5.50;;;;;9.46;69.50;101283.13;5078681;27;45379;-74
2022/03/12 08:52:50;;;;;;;;;9.75;6.00;;;;;9.56;68.94;101285.28;5072041;28;48441;-74
2022/03/12 08:55:16;;;;;;;;;7.00;6.50;;;;;9.60;69.23;101300.34;5078031;28;45267;-75
2022/03/12 08:57:42;;;;;;;;;8.50;8.00;;;;;9.54;69.45;101286.94;5071203;28;45347;-75
2022/03/12 09:00:11;;;;;;;;;8.50;6.25;;;;;9.70;68.89;101299.84;5075237;28;47282;-78
2022/03/12 09:02:38;;;;;;;;;6.25;5.00;;;;;9.58;69.41;101270.41;5069426;28;46172;-77
2022/03/12 09:05:06;;;;;;;;;14.25;13.75;;;;;9.78;69.12;101301.03;5079065;27;45613;-77
2022/03/12 09:07:32;;;;;;;;;5.00;5.00;;;;;9.63;68.96;101272.34;5069262;27;45320;-76
2022/03/12 09:09:58;;;;;;;;;7.25;5.00;;;;;9.68;68.36;101269.84;5078990;27;45233;-76
2022/03/12 09:12:23;;;;;;;;;6.75;4.50;;;;;9.91;68.61;101304.09;5077469;28;45730;-76
2022/03/12 09:14:50;;;;;;;;;7.75;5.25;;;;;9.90;68.38;101304.94;5078446;28;45359;-76
2022/03/12 09:17:15;;;;;;;;;26.00;21.25;;;;;9.74;68.54;101270.06;5077923;27;44814;-77
2022/03/12 09:19:40;;;;;;;;;6.50;5.25;;;;;9.85;68.46;101281.00;5079176;28;45437;-76
2022/03/12 09:22:06;;;;;;;;;48.00;41.00;;;;;9.83;68.62;101274.75;5073532;28;48309;-76
2022/03/12 09:24:31;;;;;;;;;5.50;5.50;;;;;9.79;68.59;101250.00;5065220;28;45272;-76
2022/03/12 09:26:57;;;;;;;;;10.50;9.00;;;;;10.13;68.01;101300.44;5070886;28;45555;-76
2022/03/12 09:29:22;;;;;;;;;9.25;9.25;;;;;10.19;67.45;101306.81;5075770;28;46028;-76
2022/03/12 09:31:48;;;;;;;;;9.00;7.25;;;;;10.15;67.91;101299.66;5076965;28;45470;-77
2022/03/12 09:34:14;;;;;;;;;6.00;4.75;;;;;10.09;67.82;101286.25;5068524;27;45350;-76
2022/03/12 09:36:40;;;;;;;;;5.75;4.50;;;;;10.03;67.46;101273.72;5078151;28;45236;-76
2022/03/12 09:39:06;;;;;;;;;5.50;4.25;;;;;10.27;67.35;101304.50;5069671;27;45511;-76
2022/03/12 09:41:33;;;;;;;;;5.50;5.50;;;;;10.26;67.83;101298.28;5077967;28;45418;-77
2022/03/12 09:43:59;;;;;;;;;8.25;6.50;;;;;10.36;67.13;101298.59;5070825;27;45316;-77
2022/03/12 09:46:24;;;;;;;;;9.50;8.00;;;;;10.45;68.00;101298.94;5077243;28;45366;-76
2022/03/12 09:48:49;;;;;;;;;6.50;6.50;;;;;10.43;67.74;101295.34;5076423;27;45513;-77
2022/03/12 09:51:15;;;;;;;;;6.50;5.75;;;;;10.54;66.81;101301.88;5081301;28;45352;-79
2022/03/12 09:53:41;;;;;;;;;5.50;5.50;;;;;10.60;66.90;101304.69;5075504;28;45421;-75
2022/03/12 09:56:06;;;;;;;;;6.75;6.75;;;;;10.68;66.38;101303.22;5081588;28;45490;-76
2022/03/12 09:58:32;;;;;;;;;5.00;3.25;;;;;10.75;66.60;101306.94;5076166;28;45336;-77
2022/03/12 10:00:57;;;;;;;;;3.00;2.25;;;;;10.83;66.61;101299.25;5081306;28;46230;-75
2022/03/12 10:03:23;;;;;;;;;5.75;5.75;;;;;10.49;66.28;101226.81;5073157;28;45301;-76
2022/03/12 10:05:48;;;;;;;;;7.25;7.25;;;;;10.81;66.88;101264.84;5081736;27;45718;-77
2022/03/12 10:08:16;;;;;;;;;5.00;5.00;;;;;10.93;66.71;101256.38;5080557;28;45799;-76
2022/03/12 10:10:42;;;;;;;;;6.00;6.00;;;;;11.27;66.39;101287.38;5081146;28;45297;-76
2022/03/12 10:13:07;;;;;;;;;7.25;5.75;;;;;11.33;65.97;101292.84;5072556;27;45296;-76
2022/03/12 10:15:32;;;;;;;;;5.25;5.25;;;;;11.46;66.36;101286.16;5080041;28;45260;-76
2022/03/12 10:18:00;;;;;;;;;4.00;4.00;;;;;11.55;65.21;101272.28;5072493;27;45260;-75
2022/03/12 10:20:25;;;;;;;;;4.50;4.50;;;;;11.67;64.72;101274.38;5079969;28;46897;-76
2022/03/12 10:22:54;;;;;;;;;5.25;5.25;;;;;11.88;65.46;101279.41;5073072;27;45335;-76
2022/03/12 10:25:19;;;;;;;;;7.00;7.00;;;;;11.88;64.73;101275.00;5076700;28;45403;-76
2022/03/12 10:27:45;;;;;;;;;6.75;6.75;;;;;12.00;64.73;101267.34;5074434;28;45221;-76
2022/03/12 10:30:11;;;;;;;;;13.50;12.25;;;;;12.08;63.40;101273.75;5071008;28;46897;-76
2022/03/12 10:32:44;;;;;;;;;7.75;5.50;;;;;12.11;64.61;101242.88;5083080;27;46099;-76
2022/03/12 10:35:15;;;;;;;;;6.50;5.00;;;;;12.08;63.43;101225.16;5072086;28;45292;-76
2022/03/12 10:37:41;;;;;;;;;5.00;3.50;;;;;12.35;64.15;101261.13;5077438;27;45564;-74
2022/03/12 10:40:22;;;;;;;;;4.00;3.00;;;;;12.04;63.90;101191.47;5071927;28;46952;-76
2022/03/12 10:43:12;;;;;;;;;11.75;7.00;;;;;12.48;63.20;101261.47;5080799;28;45420;-76
2022/03/12 10:45:43;;;;;;;;;12.00;8.00;;;;;12.59;62.70;101261.72;5080273;27;45375;-75
2022/03/12 10:48:09;;;;;;;;;7.75;7.75;;;;;12.56;62.25;101250.16;5077878;28;45344;-74
2022/03/12 10:50:52;;;;;;;;;3.00;3.00;;;;;12.69;62.90;101263.75;5078591;28;46199;-74
2022/03/12 10:53:18;;;;;;;;;4.00;1.00;;;;;12.27;61.82;101198.25;5070889;28;45425;-74
2022/03/12 10:55:48;;;;;;;;;4.50;3.00;;;;;12.64;63.66;101241.53;5081033;28;45497;-74
2022/03/12 10:58:26;;;;;;;;;57.25;44.75;;;;;12.77;63.50;101256.88;5089637;28;45554;-75
2022/03/12 11:00:59;;;;;;;;;73.25;53.50;;;;;12.76;61.83;101257.69;5083295;28;45356;-74
2022/03/12 11:03:28;;;;;;;;;4.00;3.00;;;;;12.58;61.89;101224.59;5072248;28;45380;-75
2022/03/12 11:05:56;;;;;;;;;43.25;35.25;;;;;12.86;61.58;101255.28;5077682;28;45331;-73
2022/03/12 11:08:32;;;;;;;;;6.50;4.75;;;;;12.93;62.39;101250.13;5081003;27;45351;-75
2022/03/12 11:11:13;;;;;;;;;171.67;143.67;;;;;12.89;62.30;101228.81;5080023;27;45523;-75
2022/03/12 11:13:41;;;;;;;;;18.25;17.75;;;;;13.06;61.69;101248.63;5071998;27;45369;-76
2022/03/12 11:16:27;;;;;;;;;2.00;2.00;;;;;13.04;61.66;101238.84;5078372;27;45443;-76
2022/03/12 11:18:52;;;;;;;;;38.00;31.00;;;;;13.14;60.40;101230.22;5070960;28;45637;-76
2022/03/12 11:21:27;;;;;;;;;12.00;12.00;;;;;13.18;61.53;101229.41;5075956;28;45284;-77
2022/03/12 11:23:54;;;;;;;;;6.00;6.00;;;;;13.08;59.62;101240.69;5061942;28;45308;-76
2022/03/12 11:26:20;;;;;;;;;7.67;4.00;;;;;12.93;61.38;101189.09;5072122;28;45323;-76
2022/03/12 11:28:56;;;;;;;;;3.00;3.00;;;;;13.27;60.24;101239.34;5096161;27;46241;-76
2022/03/12 11:31:39;;;;;;;;;10.50;7.75;;;;;13.31;61.53;101225.31;5079830;27;46057;-76